San Martin, Argentina
Current Conditions -  °F | °C
As of 11:00 AM on Thursday 27 Nov 2014 (Local Time) from SAME Reporting Station
Clear Clear  
Wind Chill: 27°   Ceiling: Unl
Heat Index: 27°   Visibility: 6mi
Dew Point:   Wind: 6mph
Humidity: 21%   Direction: 90°E
Pressure: 29.91"   Gusts: NA
Location:  33.07°S, 68.49°W
Report Text: SAME 271400Z 09005KT CAVOK 27/03 Q1013
Loading
Personal Weather Stations






























Interactive Weather Map New forecast layout! Learn more

10-Day Weather Forecast

Advertisements
Track Severe Weather on mobile